Aeroporto :
LOGIN :

Iscrizione | Disclaimer

   EN    FR    IT 

 










Sommario :    VFR   VFR Marginale   IFR   IFR Intensivo   IFR Molto Intensivo
Visibilità : 
Base nubi : 
>= 8 km
>= 3000ft
5 / 8 km
1000 / 3000 ft
1500m / 5 km
500 / 1000 ft
800 / 1500m
200 / 500 ft
< 800m
< 200 ft
Simboli :   Temporali  Nebbia  Neve Forte  Precipitazioni Forti  Vento > 20 kt
SIGMETs :   Varie  Temporali  Ghiacco  Turbolenza  Onda orograficha  Ceneri Vulcaniche






- Altitudine del aeroporto : 83 ft
- Codice IATA : LHR


EGLL - London Heathrow

ULTIMO METAR :
  • 151350Z AUTO VRB01KT 9999 BKN044 03/00 Q1031 NOSIG

METARs OBSOLETI :
  • 151320Z AUTO VRB01KT 9999 BKN045 03/00 Q1031 NOSIG
  • 151250Z AUTO VRB02KT 9999 FEW010 BKN045 03/00 Q1031 NOSIG
  • 151220Z AUTO VRB02KT 9999 BKN009 OVC047 02/01 Q1031 BECMG SCT010
  • 151150Z AUTO VRB02KT 9999 BKN007 02/01 Q1032 BECMG FEW007
  • 151120Z AUTO VRB03KT 9999 BKN006 02/00 Q1032 BECMG FEW006

TAF TAF EGLL
Valido dal 15 a 12 ore il 16 a 18 ore UTC


151103Z 1512/1618 05003KT 9999 SCT030
TEMPO 1512/1514 8000 BKN006
PROB40 1518/1601 6000
BECMG 1600/1603 17012KT
BECMG 1603/1606 6000 RA BKN006
TEMPO 1604/1610 16015G25KT 2000 RASN BKN002
PROB30
TEMPO 1605/1609 1000 +RASN
BECMG 1610/1613 23012KT
TEMPO 1610/1614 3000 RADZ BKN003
BECMG 1613/1616 30010KT 9999 NSW FEW025



MetMap, La meteo Aeronautica in un colpo d'occhio ! - Copyright ORBIFLY Dicembre 2007 - Disclaimer

ORBIFLY MET'MAP TEAM :

Programmazione e sviluppo : Alexandra Zaïnal
Concezione : Baudouin d'Aumeries
Aiuto per la programmazione : Marc-Olivier Méhu
Supporto tecnico e logistico : Manuel Goepfert
Aiuto per la traduzione : Arnaldo La Scala

Contatto : metmap@orbifly.com




FONTI E CREDITI :

   NOAA